sensor_id;sensor_type;location;lat;lon;timestamp;P1;durP1;ratioP1;P2;durP2;ratioP2
67749;SDS011;54550;48.838;8.828;2024-02-26T00:01:50;3.47;;;1.40;;
67749;SDS011;54550;48.838;8.828;2024-02-26T00:04:16;4.35;;;1.17;;
67749;SDS011;54550;48.838;8.828;2024-02-26T00:06:41;2.55;;;1.00;;
67749;SDS011;54550;48.838;8.828;2024-02-26T00:09:10;4.07;;;1.20;;
67749;SDS011;54550;48.838;8.828;2024-02-26T00:11:35;2.75;;;0.90;;
67749;SDS011;54550;48.838;8.828;2024-02-26T00:14:01;6.07;;;1.20;;
67749;SDS011;54550;48.838;8.828;2024-02-26T00:16:26;3.38;;;1.30;;
67749;SDS011;54550;48.838;8.828;2024-02-26T00:18:52;4.95;;;1.20;;
67749;SDS011;54550;48.838;8.828;2024-02-26T00:21:17;3.58;;;1.10;;
67749;SDS011;54550;48.838;8.828;2024-02-26T00:23:43;4.20;;;1.48;;
67749;SDS011;54550;48.838;8.828;2024-02-26T00:26:08;3.65;;;1.33;;
67749;SDS011;54550;48.838;8.828;2024-02-26T00:28:37;3.40;;;0.98;;
67749;SDS011;54550;48.838;8.828;2024-02-26T00:31:02;5.53;;;1.10;;
67749;SDS011;54550;48.838;8.828;2024-02-26T00:33:32;3.70;;;1.20;;
67749;SDS011;54550;48.838;8.828;2024-02-26T00:35:58;2.67;;;1.10;;
67749;SDS011;54550;48.838;8.828;2024-02-26T00:38:23;4.90;;;1.30;;
67749;SDS011;54550;48.838;8.828;2024-02-26T00:40:48;3.60;;;1.17;;
67749;SDS011;54550;48.838;8.828;2024-02-26T00:43:14;2.63;;;1.02;;
67749;SDS011;54550;48.838;8.828;2024-02-26T00:45:39;4.47;;;1.37;;
67749;SDS011;54550;48.838;8.828;2024-02-26T00:48:06;5.88;;;1.40;;
67749;SDS011;54550;48.838;8.828;2024-02-26T00:50:32;4.93;;;1.30;;
67749;SDS011;54550;48.838;8.828;2024-02-26T00:52:58;1.98;;;0.95;;
67749;SDS011;54550;48.838;8.828;2024-02-26T00:55:24;2.28;;;1.05;;
67749;SDS011;54550;48.838;8.828;2024-02-26T00:57:49;3.33;;;1.00;;
67749;SDS011;54550;48.838;8.828;2024-02-26T01:00:15;2.67;;;0.75;;
67749;SDS011;54550;48.838;8.828;2024-02-26T01:02:40;2.70;;;0.93;;
67749;SDS011;54550;48.838;8.828;2024-02-26T01:05:12;3.58;;;0.98;;
67749;SDS011;54550;48.838;8.828;2024-02-26T01:07:38;1.60;;;0.80;;
67749;SDS011;54550;48.838;8.828;2024-02-26T01:10:04;2.38;;;0.75;;
67749;SDS011;54550;48.838;8.828;2024-02-26T01:12:32;2.35;;;0.93;;
67749;SDS011;54550;48.838;8.828;2024-02-26T01:14:58;4.18;;;1.27;;
67749;SDS011;54550;48.838;8.828;2024-02-26T01:17:23;1.58;;;0.70;;
67749;SDS011;54550;48.838;8.828;2024-02-26T01:19:48;2.80;;;0.70;;
67749;SDS011;54550;48.838;8.828;2024-02-26T01:22:14;1.67;;;0.67;;
67749;SDS011;54550;48.838;8.828;2024-02-26T01:24:39;2.10;;;0.77;;
67749;SDS011;54550;48.838;8.828;2024-02-26T01:27:04;1.45;;;0.63;;
67749;SDS011;54550;48.838;8.828;2024-02-26T01:29:30;1.95;;;0.65;;
67749;SDS011;54550;48.838;8.828;2024-02-26T01:31:55;2.28;;;0.80;;
67749;SDS011;54550;48.838;8.828;2024-02-26T01:34:21;3.05;;;1.67;;
67749;SDS011;54550;48.838;8.828;2024-02-26T01:36:46;2.45;;;1.20;;
67749;SDS011;54550;48.838;8.828;2024-02-26T01:39:12;3.67;;;1.33;;
67749;SDS011;54550;48.838;8.828;2024-02-26T01:41:38;3.72;;;1.30;;
67749;SDS011;54550;48.838;8.828;2024-02-26T01:44:05;2.45;;;1.05;;
67749;SDS011;54550;48.838;8.828;2024-02-26T01:46:30;2.35;;;0.80;;
67749;SDS011;54550;48.838;8.828;2024-02-26T01:48:56;3.00;;;0.90;;
67749;SDS011;54550;48.838;8.828;2024-02-26T01:51:23;2.50;;;0.90;;
67749;SDS011;54550;48.838;8.828;2024-02-26T01:53:48;3.15;;;1.20;;
67749;SDS011;54550;48.838;8.828;2024-02-26T01:56:14;3.55;;;1.55;;
67749;SDS011;54550;48.838;8.828;2024-02-26T01:58:39;2.63;;;1.02;;
67749;SDS011;54550;48.838;8.828;2024-02-26T02:01:05;4.00;;;1.33;;
67749;SDS011;54550;48.838;8.828;2024-02-26T02:03:31;4.30;;;1.50;;
67749;SDS011;54550;48.838;8.828;2024-02-26T02:05:56;4.82;;;1.67;;
67749;SDS011;54550;48.838;8.828;2024-02-26T02:08:21;3.75;;;1.40;;
67749;SDS011;54550;48.838;8.828;2024-02-26T02:10:48;1.77;;;0.90;;
67749;SDS011;54550;48.838;8.828;2024-02-26T02:13:14;2.70;;;1.00;;
67749;SDS011;54550;48.838;8.828;2024-02-26T02:15:40;3.80;;;0.85;;
67749;SDS011;54550;48.838;8.828;2024-02-26T02:18:05;0.70;;;0.30;;
67749;SDS011;54550;48.838;8.828;2024-02-26T02:20:36;0.77;;;0.35;;
67749;SDS011;54550;48.838;8.828;2024-02-26T02:23:03;2.47;;;0.57;;
67749;SDS011;54550;48.838;8.828;2024-02-26T02:25:28;3.55;;;0.73;;
67749;SDS011;54550;48.838;8.828;2024-02-26T02:27:54;1.92;;;0.55;;
67749;SDS011;54550;48.838;8.828;2024-02-26T02:30:28;2.10;;;0.98;;
67749;SDS011;54550;48.838;8.828;2024-02-26T02:32:54;0.93;;;0.38;;
67749;SDS011;54550;48.838;8.828;2024-02-26T02:35:20;2.03;;;0.38;;
67749;SDS011;54550;48.838;8.828;2024-02-26T02:37:46;0.60;;;0.28;;
67749;SDS011;54550;48.838;8.828;2024-02-26T02:40:11;1.10;;;0.45;;
67749;SDS011;54550;48.838;8.828;2024-02-26T02:42:37;2.35;;;0.35;;
67749;SDS011;54550;48.838;8.828;2024-02-26T02:45:04;3.70;;;0.40;;
67749;SDS011;54550;48.838;8.828;2024-02-26T02:47:35;1.33;;;0.40;;
67749;SDS011;54550;48.838;8.828;2024-02-26T02:50:08;3.65;;;0.70;;
67749;SDS011;54550;48.838;8.828;2024-02-26T02:52:34;2.83;;;0.70;;
67749;SDS011;54550;48.838;8.828;2024-02-26T02:54:59;1.13;;;0.60;;
67749;SDS011;54550;48.838;8.828;2024-02-26T02:57:25;1.88;;;0.65;;
67749;SDS011;54550;48.838;8.828;2024-02-26T02:59:50;1.85;;;0.65;;
67749;SDS011;54550;48.838;8.828;2024-02-26T03:02:16;2.70;;;0.82;;
67749;SDS011;54550;48.838;8.828;2024-02-26T03:04:41;1.83;;;0.65;;
67749;SDS011;54550;48.838;8.828;2024-02-26T03:07:06;2.05;;;0.90;;
67749;SDS011;54550;48.838;8.828;2024-02-26T03:09:32;1.83;;;0.60;;
67749;SDS011;54550;48.838;8.828;2024-02-26T03:11:57;1.42;;;0.60;;
67749;SDS011;54550;48.838;8.828;2024-02-26T03:14:22;1.92;;;0.82;;
67749;SDS011;54550;48.838;8.828;2024-02-26T03:16:57;3.38;;;0.50;;
67749;SDS011;54550;48.838;8.828;2024-02-26T03:19:23;0.77;;;0.30;;
67749;SDS011;54550;48.838;8.828;2024-02-26T03:21:49;0.82;;;0.25;;
67749;SDS011;54550;48.838;8.828;2024-02-26T03:24:14;0.30;;;0.20;;
67749;SDS011;54550;48.838;8.828;2024-02-26T03:26:40;0.75;;;0.30;;
67749;SDS011;54550;48.838;8.828;2024-02-26T03:29:05;2.13;;;0.40;;
67749;SDS011;54550;48.838;8.828;2024-02-26T03:31:31;0.82;;;0.20;;
67749;SDS011;54550;48.838;8.828;2024-02-26T03:33:59;0.60;;;0.20;;
67749;SDS011;54550;48.838;8.828;2024-02-26T03:36:24;0.65;;;0.25;;
67749;SDS011;54550;48.838;8.828;2024-02-26T03:38:50;0.55;;;0.20;;
67749;SDS011;54550;48.838;8.828;2024-02-26T03:41:15;0.15;;;0.10;;
67749;SDS011;54550;48.838;8.828;2024-02-26T03:43:40;1.30;;;0.30;;
67749;SDS011;54550;48.838;8.828;2024-02-26T03:46:09;0.43;;;0.20;;
67749;SDS011;54550;48.838;8.828;2024-02-26T03:48:38;0.30;;;0.20;;
67749;SDS011;54550;48.838;8.828;2024-02-26T03:51:05;0.70;;;0.10;;
67749;SDS011;54550;48.838;8.828;2024-02-26T03:53:30;0.30;;;0.20;;
67749;SDS011;54550;48.838;8.828;2024-02-26T03:55:56;1.23;;;0.20;;
67749;SDS011;54550;48.838;8.828;2024-02-26T03:58:21;0.70;;;0.30;;
67749;SDS011;54550;48.838;8.828;2024-02-26T04:00:47;1.00;;;0.30;;
67749;SDS011;54550;48.838;8.828;2024-02-26T04:03:14;0.60;;;0.20;;
67749;SDS011;54550;48.838;8.828;2024-02-26T04:05:40;0.88;;;0.20;;
67749;SDS011;54550;48.838;8.828;2024-02-26T04:08:05;0.50;;;0.30;;
67749;SDS011;54550;48.838;8.828;2024-02-26T04:10:32;0.40;;;0.20;;
67749;SDS011;54550;48.838;8.828;2024-02-26T04:13:00;0.30;;;0.20;;
67749;SDS011;54550;48.838;8.828;2024-02-26T04:15:25;1.17;;;0.20;;
67749;SDS011;54550;48.838;8.828;2024-02-26T04:17:51;0.60;;;0.20;;
67749;SDS011;54550;48.838;8.828;2024-02-26T04:20:17;0.75;;;0.30;;
67749;SDS011;54550;48.838;8.828;2024-02-26T04:22:43;0.30;;;0.10;;
67749;SDS011;54550;48.838;8.828;2024-02-26T04:25:08;0.52;;;0.20;;
67749;SDS011;54550;48.838;8.828;2024-02-26T04:27:34;0.88;;;0.40;;
67749;SDS011;54550;48.838;8.828;2024-02-26T04:29:59;1.47;;;0.30;;
67749;SDS011;54550;48.838;8.828;2024-02-26T04:32:24;0.50;;;0.17;;
67749;SDS011;54550;48.838;8.828;2024-02-26T04:34:50;0.98;;;0.28;;
67749;SDS011;54550;48.838;8.828;2024-02-26T04:37:15;1.30;;;0.30;;
67749;SDS011;54550;48.838;8.828;2024-02-26T04:39:40;1.35;;;0.30;;
67749;SDS011;54550;48.838;8.828;2024-02-26T04:42:06;0.45;;;0.17;;
67749;SDS011;54550;48.838;8.828;2024-02-26T04:44:31;0.30;;;0.17;;
67749;SDS011;54550;48.838;8.828;2024-02-26T04:46:56;1.23;;;0.30;;
67749;SDS011;54550;48.838;8.828;2024-02-26T04:49:22;0.83;;;0.30;;
67749;SDS011;54550;48.838;8.828;2024-02-26T04:51:47;0.90;;;0.20;;
67749;SDS011;54550;48.838;8.828;2024-02-26T04:54:13;1.98;;;0.30;;
67749;SDS011;54550;48.838;8.828;2024-02-26T04:56:39;1.00;;;0.20;;
67749;SDS011;54550;48.838;8.828;2024-02-26T04:59:05;0.77;;;0.20;;
67749;SDS011;54550;48.838;8.828;2024-02-26T05:01:30;0.60;;;0.30;;
67749;SDS011;54550;48.838;8.828;2024-02-26T05:03:55;0.73;;;0.20;;
67749;SDS011;54550;48.838;8.828;2024-02-26T05:06:21;0.57;;;0.20;;
67749;SDS011;54550;48.838;8.828;2024-02-26T05:08:48;0.68;;;0.20;;
67749;SDS011;54550;48.838;8.828;2024-02-26T05:11:13;0.25;;;0.10;;
67749;SDS011;54550;48.838;8.828;2024-02-26T05:13:39;0.32;;;0.20;;
67749;SDS011;54550;48.838;8.828;2024-02-26T05:16:04;1.45;;;0.30;;
67749;SDS011;54550;48.838;8.828;2024-02-26T05:18:30;0.60;;;0.32;;
67749;SDS011;54550;48.838;8.828;2024-02-26T05:20:55;1.27;;;0.50;;
67749;SDS011;54550;48.838;8.828;2024-02-26T05:23:20;1.00;;;0.30;;
67749;SDS011;54550;48.838;8.828;2024-02-26T05:25:46;1.38;;;0.60;;
67749;SDS011;54550;48.838;8.828;2024-02-26T05:28:14;1.10;;;0.52;;
67749;SDS011;54550;48.838;8.828;2024-02-26T05:30:40;1.40;;;0.40;;
67749;SDS011;54550;48.838;8.828;2024-02-26T05:35:32;0.70;;;0.30;;
67749;SDS011;54550;48.838;8.828;2024-02-26T05:37:57;0.70;;;0.20;;
67749;SDS011;54550;48.838;8.828;2024-02-26T05:40:23;0.98;;;0.28;;
67749;SDS011;54550;48.838;8.828;2024-02-26T05:42:48;3.25;;;0.32;;
67749;SDS011;54550;48.838;8.828;2024-02-26T05:45:14;0.95;;;0.30;;
67749;SDS011;54550;48.838;8.828;2024-02-26T05:50:08;1.13;;;0.30;;
67749;SDS011;54550;48.838;8.828;2024-02-26T05:52:40;0.88;;;0.38;;
67749;SDS011;54550;48.838;8.828;2024-02-26T05:55:05;1.42;;;0.40;;
67749;SDS011;54550;48.838;8.828;2024-02-26T05:57:32;1.00;;;0.30;;
67749;SDS011;54550;48.838;8.828;2024-02-26T05:59:58;1.30;;;0.38;;
67749;SDS011;54550;48.838;8.828;2024-02-26T06:02:28;0.98;;;0.40;;
67749;SDS011;54550;48.838;8.828;2024-02-26T06:04:54;0.47;;;0.17;;
67749;SDS011;54550;48.838;8.828;2024-02-26T06:07:19;0.60;;;0.30;;
67749;SDS011;54550;48.838;8.828;2024-02-26T06:09:45;1.58;;;0.60;;
67749;SDS011;54550;48.838;8.828;2024-02-26T06:12:10;1.27;;;0.50;;
67749;SDS011;54550;48.838;8.828;2024-02-26T06:14:36;1.30;;;0.50;;
67749;SDS011;54550;48.838;8.828;2024-02-26T06:17:01;0.75;;;0.30;;
67749;SDS011;54550;48.838;8.828;2024-02-26T06:19:28;1.65;;;0.60;;
67749;SDS011;54550;48.838;8.828;2024-02-26T06:21:55;2.80;;;0.22;;
67749;SDS011;54550;48.838;8.828;2024-02-26T06:24:23;2.72;;;0.52;;
67749;SDS011;54550;48.838;8.828;2024-02-26T06:26:49;1.20;;;0.40;;
67749;SDS011;54550;48.838;8.828;2024-02-26T06:29:14;0.20;;;0.20;;
67749;SDS011;54550;48.838;8.828;2024-02-26T06:31:48;0.55;;;0.20;;
67749;SDS011;54550;48.838;8.828;2024-02-26T06:34:16;0.60;;;0.20;;
67749;SDS011;54550;48.838;8.828;2024-02-26T06:36:47;3.85;;;0.73;;
67749;SDS011;54550;48.838;8.828;2024-02-26T06:39:14;0.75;;;0.30;;
67749;SDS011;54550;48.838;8.828;2024-02-26T06:41:41;0.85;;;0.40;;
67749;SDS011;54550;48.838;8.828;2024-02-26T06:44:06;1.60;;;0.50;;
67749;SDS011;54550;48.838;8.828;2024-02-26T06:46:32;1.48;;;0.50;;
67749;SDS011;54550;48.838;8.828;2024-02-26T06:49:01;2.60;;;0.30;;
67749;SDS011;54550;48.838;8.828;2024-02-26T06:51:47;0.93;;;0.32;;
67749;SDS011;54550;48.838;8.828;2024-02-26T06:54:13;1.13;;;0.40;;
67749;SDS011;54550;48.838;8.828;2024-02-26T06:56:38;1.38;;;0.40;;
67749;SDS011;54550;48.838;8.828;2024-02-26T06:59:04;1.85;;;0.40;;
67749;SDS011;54550;48.838;8.828;2024-02-26T07:01:29;1.50;;;0.60;;
67749;SDS011;54550;48.838;8.828;2024-02-26T07:03:55;2.65;;;0.50;;
67749;SDS011;54550;48.838;8.828;2024-02-26T07:06:21;1.77;;;0.40;;
67749;SDS011;54550;48.838;8.828;2024-02-26T07:08:46;1.50;;;0.47;;
67749;SDS011;54550;48.838;8.828;2024-02-26T07:11:21;1.23;;;0.40;;
67749;SDS011;54550;48.838;8.828;2024-02-26T07:13:49;1.60;;;0.40;;
67749;SDS011;54550;48.838;8.828;2024-02-26T07:16:15;1.52;;;0.60;;
67749;SDS011;54550;48.838;8.828;2024-02-26T07:18:42;1.27;;;0.45;;
67749;SDS011;54550;48.838;8.828;2024-02-26T07:21:11;0.77;;;0.40;;
67749;SDS011;54550;48.838;8.828;2024-02-26T07:23:42;1.35;;;0.50;;
67749;SDS011;54550;48.838;8.828;2024-02-26T07:26:08;0.82;;;0.30;;
67749;SDS011;54550;48.838;8.828;2024-02-26T07:28:40;8.13;;;0.43;;
67749;SDS011;54550;48.838;8.828;2024-02-26T07:31:05;0.90;;;0.40;;
67749;SDS011;54550;48.838;8.828;2024-02-26T07:33:31;0.68;;;0.30;;
67749;SDS011;54550;48.838;8.828;2024-02-26T07:35:56;1.77;;;0.28;;
67749;SDS011;54550;48.838;8.828;2024-02-26T07:38:22;1.35;;;0.50;;
67749;SDS011;54550;48.838;8.828;2024-02-26T07:40:49;1.08;;;0.60;;
67749;SDS011;54550;48.838;8.828;2024-02-26T07:43:14;1.17;;;0.50;;
67749;SDS011;54550;48.838;8.828;2024-02-26T07:45:39;1.30;;;0.52;;
67749;SDS011;54550;48.838;8.828;2024-02-26T07:48:05;0.68;;;0.32;;
67749;SDS011;54550;48.838;8.828;2024-02-26T07:50:30;2.70;;;0.55;;
67749;SDS011;54550;48.838;8.828;2024-02-26T07:52:56;1.15;;;0.45;;
67749;SDS011;54550;48.838;8.828;2024-02-26T07:55:22;0.75;;;0.30;;
67749;SDS011;54550;48.838;8.828;2024-02-26T07:57:48;1.45;;;0.20;;
67749;SDS011;54550;48.838;8.828;2024-02-26T08:00:16;1.75;;;0.65;;
67749;SDS011;54550;48.838;8.828;2024-02-26T08:02:42;1.75;;;0.57;;
67749;SDS011;54550;48.838;8.828;2024-02-26T08:05:09;0.95;;;0.40;;
67749;SDS011;54550;48.838;8.828;2024-02-26T08:07:34;0.65;;;0.30;;
67749;SDS011;54550;48.838;8.828;2024-02-26T08:09:59;3.25;;;0.68;;
67749;SDS011;54550;48.838;8.828;2024-02-26T08:12:25;0.80;;;0.50;;
67749;SDS011;54550;48.838;8.828;2024-02-26T08:14:50;1.88;;;0.32;;
67749;SDS011;54550;48.838;8.828;2024-02-26T08:17:16;1.80;;;0.40;;
67749;SDS011;54550;48.838;8.828;2024-02-26T08:19:42;1.02;;;0.30;;
67749;SDS011;54550;48.838;8.828;2024-02-26T08:22:07;2.67;;;0.40;;
67749;SDS011;54550;48.838;8.828;2024-02-26T08:24:33;1.50;;;0.40;;
67749;SDS011;54550;48.838;8.828;2024-02-26T08:26:58;1.13;;;0.30;;
67749;SDS011;54550;48.838;8.828;2024-02-26T08:29:23;1.33;;;0.50;;
67749;SDS011;54550;48.838;8.828;2024-02-26T08:31:49;0.80;;;0.23;;
67749;SDS011;54550;48.838;8.828;2024-02-26T08:34:15;1.13;;;0.30;;
67749;SDS011;54550;48.838;8.828;2024-02-26T08:36:40;0.98;;;0.40;;
67749;SDS011;54550;48.838;8.828;2024-02-26T08:39:06;1.30;;;0.45;;
67749;SDS011;54550;48.838;8.828;2024-02-26T08:41:32;0.65;;;0.30;;
67749;SDS011;54550;48.838;8.828;2024-02-26T08:43:57;1.23;;;0.47;;
67749;SDS011;54550;48.838;8.828;2024-02-26T08:46:23;1.08;;;0.30;;
67749;SDS011;54550;48.838;8.828;2024-02-26T08:48:48;1.02;;;0.30;;
67749;SDS011;54550;48.838;8.828;2024-02-26T08:51:14;1.00;;;0.28;;
67749;SDS011;54550;48.838;8.828;2024-02-26T08:53:39;0.68;;;0.32;;
67749;SDS011;54550;48.838;8.828;2024-02-26T08:56:05;0.80;;;0.30;;
67749;SDS011;54550;48.838;8.828;2024-02-26T08:58:31;0.95;;;0.40;;
67749;SDS011;54550;48.838;8.828;2024-02-26T09:00:56;2.10;;;0.40;;
67749;SDS011;54550;48.838;8.828;2024-02-26T09:03:22;1.23;;;0.40;;
67749;SDS011;54550;48.838;8.828;2024-02-26T09:05:47;0.85;;;0.40;;
67749;SDS011;54550;48.838;8.828;2024-02-26T09:08:12;0.40;;;0.30;;
67749;SDS011;54550;48.838;8.828;2024-02-26T09:10:38;1.73;;;0.40;;
67749;SDS011;54550;48.838;8.828;2024-02-26T09:13:04;2.50;;;0.50;;
67749;SDS011;54550;48.838;8.828;2024-02-26T09:15:29;1.38;;;0.45;;
67749;SDS011;54550;48.838;8.828;2024-02-26T09:17:54;1.52;;;0.30;;
67749;SDS011;54550;48.838;8.828;2024-02-26T09:20:20;1.15;;;0.50;;
67749;SDS011;54550;48.838;8.828;2024-02-26T09:22:46;1.98;;;0.60;;
67749;SDS011;54550;48.838;8.828;2024-02-26T09:25:12;1.80;;;0.60;;
67749;SDS011;54550;48.838;8.828;2024-02-26T09:27:38;1.10;;;0.40;;
67749;SDS011;54550;48.838;8.828;2024-02-26T09:30:03;0.80;;;0.32;;
67749;SDS011;54550;48.838;8.828;2024-02-26T09:32:29;1.38;;;0.45;;
67749;SDS011;54550;48.838;8.828;2024-02-26T09:34:55;0.98;;;0.40;;
67749;SDS011;54550;48.838;8.828;2024-02-26T09:37:20;0.93;;;0.20;;
67749;SDS011;54550;48.838;8.828;2024-02-26T09:39:46;1.77;;;0.40;;
67749;SDS011;54550;48.838;8.828;2024-02-26T09:42:11;0.97;;;0.40;;
67749;SDS011;54550;48.838;8.828;2024-02-26T09:44:39;0.30;;;0.20;;
67749;SDS011;54550;48.838;8.828;2024-02-26T09:47:06;1.95;;;0.30;;
67749;SDS011;54550;48.838;8.828;2024-02-26T09:49:33;1.40;;;0.30;;
67749;SDS011;54550;48.838;8.828;2024-02-26T09:52:00;0.75;;;0.40;;
67749;SDS011;54550;48.838;8.828;2024-02-26T09:54:27;1.40;;;0.50;;
67749;SDS011;54550;48.838;8.828;2024-02-26T09:56:53;2.28;;;0.70;;
67749;SDS011;54550;48.838;8.828;2024-02-26T09:59:21;1.63;;;0.70;;
67749;SDS011;54550;48.838;8.828;2024-02-26T10:01:46;1.02;;;0.30;;
67749;SDS011;54550;48.838;8.828;2024-02-26T10:04:13;1.73;;;0.50;;
67749;SDS011;54550;48.838;8.828;2024-02-26T10:06:39;1.00;;;0.50;;
67749;SDS011;54550;48.838;8.828;2024-02-26T10:09:05;1.20;;;0.40;;
67749;SDS011;54550;48.838;8.828;2024-02-26T10:11:32;2.05;;;0.70;;
67749;SDS011;54550;48.838;8.828;2024-02-26T10:13:58;3.22;;;0.50;;
67749;SDS011;54550;48.838;8.828;2024-02-26T10:16:24;1.45;;;0.40;;
67749;SDS011;54550;48.838;8.828;2024-02-26T10:18:50;2.20;;;0.73;;
67749;SDS011;54550;48.838;8.828;2024-02-26T10:21:17;0.85;;;0.35;;
67749;SDS011;54550;48.838;8.828;2024-02-26T10:23:45;1.33;;;0.50;;
67749;SDS011;54550;48.838;8.828;2024-02-26T10:26:14;1.77;;;0.47;;
67749;SDS011;54550;48.838;8.828;2024-02-26T10:28:41;1.55;;;0.47;;
67749;SDS011;54550;48.838;8.828;2024-02-26T10:31:07;1.50;;;0.50;;
67749;SDS011;54550;48.838;8.828;2024-02-26T10:33:33;1.75;;;0.30;;
67749;SDS011;54550;48.838;8.828;2024-02-26T10:36:01;1.98;;;0.40;;
67749;SDS011;54550;48.838;8.828;2024-02-26T10:40:52;0.97;;;0.30;;
67749;SDS011;54550;48.838;8.828;2024-02-26T10:43:18;1.60;;;0.60;;
67749;SDS011;54550;48.838;8.828;2024-02-26T10:45:43;1.52;;;0.68;;
67749;SDS011;54550;48.838;8.828;2024-02-26T10:48:09;1.10;;;0.40;;
67749;SDS011;54550;48.838;8.828;2024-02-26T10:50:36;1.10;;;0.50;;
67749;SDS011;54550;48.838;8.828;2024-02-26T10:53:01;2.28;;;0.73;;
67749;SDS011;54550;48.838;8.828;2024-02-26T10:55:28;0.75;;;0.40;;
67749;SDS011;54550;48.838;8.828;2024-02-26T10:57:53;0.85;;;0.30;;
67749;SDS011;54550;48.838;8.828;2024-02-26T11:00:19;1.55;;;0.35;;
67749;SDS011;54550;48.838;8.828;2024-02-26T11:02:45;1.00;;;0.47;;
67749;SDS011;54550;48.838;8.828;2024-02-26T11:05:13;2.47;;;0.50;;
67749;SDS011;54550;48.838;8.828;2024-02-26T11:07:39;0.75;;;0.20;;
67749;SDS011;54550;48.838;8.828;2024-02-26T11:10:06;0.63;;;0.25;;
67749;SDS011;54550;48.838;8.828;2024-02-26T11:12:32;1.85;;;0.43;;
67749;SDS011;54550;48.838;8.828;2024-02-26T11:15:00;1.77;;;0.40;;
67749;SDS011;54550;48.838;8.828;2024-02-26T11:17:26;0.82;;;0.40;;
67749;SDS011;54550;48.838;8.828;2024-02-26T11:19:55;0.85;;;0.30;;
67749;SDS011;54550;48.838;8.828;2024-02-26T11:22:20;1.00;;;0.43;;
67749;SDS011;54550;48.838;8.828;2024-02-26T11:24:51;0.68;;;0.35;;
67749;SDS011;54550;48.838;8.828;2024-02-26T11:27:17;0.60;;;0.30;;
67749;SDS011;54550;48.838;8.828;2024-02-26T11:29:44;0.70;;;0.50;;
67749;SDS011;54550;48.838;8.828;2024-02-26T11:32:13;1.00;;;0.28;;
67749;SDS011;54550;48.838;8.828;2024-02-26T11:34:39;2.00;;;0.50;;
67749;SDS011;54550;48.838;8.828;2024-02-26T11:39:37;0.80;;;0.35;;
67749;SDS011;54550;48.838;8.828;2024-02-26T11:42:05;0.68;;;0.32;;
67749;SDS011;54550;48.838;8.828;2024-02-26T11:44:34;1.23;;;0.40;;
67749;SDS011;54550;48.838;8.828;2024-02-26T11:47:09;0.57;;;0.30;;
67749;SDS011;54550;48.838;8.828;2024-02-26T11:49:44;1.02;;;0.38;;
67749;SDS011;54550;48.838;8.828;2024-02-26T11:54:49;0.77;;;0.32;;
67749;SDS011;54550;48.838;8.828;2024-02-26T12:02:44;0.70;;;0.20;;
67749;SDS011;54550;48.838;8.828;2024-02-26T12:05:20;1.73;;;0.75;;
67749;SDS011;54550;48.838;8.828;2024-02-26T12:07:52;1.02;;;0.40;;
67749;SDS011;54550;48.838;8.828;2024-02-26T12:15:09;1.80;;;0.57;;
67749;SDS011;54550;48.838;8.828;2024-02-26T12:17:36;1.40;;;0.25;;
67749;SDS011;54550;48.838;8.828;2024-02-26T12:20:08;0.65;;;0.15;;
67749;SDS011;54550;48.838;8.828;2024-02-26T12:22:34;0.70;;;0.20;;
67749;SDS011;54550;48.838;8.828;2024-02-26T12:25:02;0.60;;;0.10;;
67749;SDS011;54550;48.838;8.828;2024-02-26T12:27:28;0.20;;;0.10;;
67749;SDS011;54550;48.838;8.828;2024-02-26T12:32:18;0.17;;;0.10;;
67749;SDS011;54550;48.838;8.828;2024-02-26T12:37:09;0.17;;;0.10;;
67749;SDS011;54550;48.838;8.828;2024-02-26T12:42:00;0.70;;;0.30;;
67749;SDS011;54550;48.838;8.828;2024-02-26T12:44:26;0.50;;;0.10;;
67749;SDS011;54550;48.838;8.828;2024-02-26T12:46:59;0.50;;;0.20;;
67749;SDS011;54550;48.838;8.828;2024-02-26T12:49:25;0.88;;;0.20;;
67749;SDS011;54550;48.838;8.828;2024-02-26T12:51:50;0.45;;;0.17;;
67749;SDS011;54550;48.838;8.828;2024-02-26T12:54:16;1.75;;;0.52;;
67749;SDS011;54550;48.838;8.828;2024-02-26T12:56:41;1.42;;;0.68;;
67749;SDS011;54550;48.838;8.828;2024-02-26T13:01:32;2.67;;;1.17;;
67749;SDS011;54550;48.838;8.828;2024-02-26T13:06:23;4.07;;;1.40;;
67749;SDS011;54550;48.838;8.828;2024-02-26T13:11:14;4.22;;;1.20;;
67749;SDS011;54550;48.838;8.828;2024-02-26T13:13:40;2.40;;;1.00;;
67749;SDS011;54550;48.838;8.828;2024-02-26T13:18:33;2.55;;;0.70;;
67749;SDS011;54550;48.838;8.828;2024-02-26T13:23:34;2.05;;;0.60;;
67749;SDS011;54550;48.838;8.828;2024-02-26T13:28:25;1.83;;;0.43;;
67749;SDS011;54550;48.838;8.828;2024-02-26T13:30:53;1.35;;;0.50;;
67749;SDS011;54550;48.838;8.828;2024-02-26T13:33:22;0.82;;;0.45;;
67749;SDS011;54550;48.838;8.828;2024-02-26T13:38:13;0.60;;;0.37;;
67749;SDS011;54550;48.838;8.828;2024-02-26T13:40:38;2.37;;;0.40;;
67749;SDS011;54550;48.838;8.828;2024-02-26T13:43:06;2.42;;;0.45;;
67749;SDS011;54550;48.838;8.828;2024-02-26T13:45:36;0.98;;;0.35;;
67749;SDS011;54550;48.838;8.828;2024-02-26T13:48:03;1.13;;;0.45;;
67749;SDS011;54550;48.838;8.828;2024-02-26T13:50:29;0.52;;;0.30;;
67749;SDS011;54550;48.838;8.828;2024-02-26T13:55:21;1.77;;;0.43;;
67749;SDS011;54550;48.838;8.828;2024-02-26T13:57:49;2.45;;;0.65;;
67749;SDS011;54550;48.838;8.828;2024-02-26T14:00:16;2.85;;;0.75;;
67749;SDS011;54550;48.838;8.828;2024-02-26T14:02:43;1.83;;;0.45;;
67749;SDS011;54550;48.838;8.828;2024-02-26T14:07:43;2.90;;;0.60;;
67749;SDS011;54550;48.838;8.828;2024-02-26T14:10:08;1.77;;;0.90;;
67749;SDS011;54550;48.838;8.828;2024-02-26T14:12:35;1.80;;;0.55;;
67749;SDS011;54550;48.838;8.828;2024-02-26T14:15:00;1.05;;;0.30;;
67749;SDS011;54550;48.838;8.828;2024-02-26T14:17:29;1.05;;;0.50;;
67749;SDS011;54550;48.838;8.828;2024-02-26T14:19:55;1.60;;;0.50;;
67749;SDS011;54550;48.838;8.828;2024-02-26T14:22:20;2.07;;;0.40;;
67749;SDS011;54550;48.838;8.828;2024-02-26T14:24:45;8.02;;;0.52;;
67749;SDS011;54550;48.838;8.828;2024-02-26T14:27:12;0.88;;;0.38;;
67749;SDS011;54550;48.838;8.828;2024-02-26T14:29:42;3.45;;;0.35;;
67749;SDS011;54550;48.838;8.828;2024-02-26T14:32:08;2.35;;;0.32;;
67749;SDS011;54550;48.838;8.828;2024-02-26T14:34:34;3.70;;;0.57;;
67749;SDS011;54550;48.838;8.828;2024-02-26T14:39:25;3.07;;;0.60;;
67749;SDS011;54550;48.838;8.828;2024-02-26T14:41:50;0.88;;;0.30;;
67749;SDS011;54550;48.838;8.828;2024-02-26T14:44:15;1.17;;;0.30;;
67749;SDS011;54550;48.838;8.828;2024-02-26T14:49:06;3.03;;;0.30;;
67749;SDS011;54550;48.838;8.828;2024-02-26T14:53:57;1.43;;;0.30;;
67749;SDS011;54550;48.838;8.828;2024-02-26T14:56:24;1.20;;;0.20;;
67749;SDS011;54550;48.838;8.828;2024-02-26T14:58:50;3.13;;;0.30;;
67749;SDS011;54550;48.838;8.828;2024-02-26T15:01:15;1.48;;;0.55;;
67749;SDS011;54550;48.838;8.828;2024-02-26T15:03:41;1.17;;;0.30;;
67749;SDS011;54550;48.838;8.828;2024-02-26T15:08:31;0.53;;;0.27;;
67749;SDS011;54550;48.838;8.828;2024-02-26T15:13:22;1.80;;;0.27;;
67749;SDS011;54550;48.838;8.828;2024-02-26T15:15:47;1.73;;;0.40;;
67749;SDS011;54550;48.838;8.828;2024-02-26T15:18:13;1.48;;;0.30;;
67749;SDS011;54550;48.838;8.828;2024-02-26T15:20:41;1.17;;;0.20;;
67749;SDS011;54550;48.838;8.828;2024-02-26T15:23:08;0.98;;;0.32;;
67749;SDS011;54550;48.838;8.828;2024-02-26T15:25:33;3.53;;;1.08;;
67749;SDS011;54550;48.838;8.828;2024-02-26T15:27:58;3.97;;;1.00;;
67749;SDS011;54550;48.838;8.828;2024-02-26T15:30:24;1.63;;;0.40;;
67749;SDS011;54550;48.838;8.828;2024-02-26T15:32:52;6.18;;;2.60;;
67749;SDS011;54550;48.838;8.828;2024-02-26T15:35:18;2.20;;;1.00;;
67749;SDS011;54550;48.838;8.828;2024-02-26T15:37:43;1.98;;;0.75;;
67749;SDS011;54550;48.838;8.828;2024-02-26T15:40:08;2.13;;;0.60;;
67749;SDS011;54550;48.838;8.828;2024-02-26T15:42:35;2.08;;;0.50;;
67749;SDS011;54550;48.838;8.828;2024-02-26T15:45:00;1.13;;;0.30;;
67749;SDS011;54550;48.838;8.828;2024-02-26T15:47:26;3.03;;;0.50;;